Time;durP1;ratioP1;P1;durP2;ratioP2;P2;SDS_P1;SDS_P2;PMS_P1;PMS_P2;Temp;Humidity;BMP_temperature;BMP_pressure;BME280_temperature;BME280_humidity;BME280_pressure;Samples;Min_cycle;Max_cycle;Signal;HPM_P1;HPM_P2
2021/01/06 00:00:00;;;;;;;2.83;1.73;;;3.90;92.00;;;;;;5114258;28;20401;-75
2021/01/06 00:02:25;;;;;;;2.90;1.35;;;3.90;92.00;;;;;;5114048;28;20032;-75
2021/01/06 00:04:51;;;;;;;2.05;1.20;;;3.90;92.00;;;;;;5113816;28;20039;-74
2021/01/06 00:07:17;;;;;;;1.77;1.10;;;3.90;92.00;;;;;;5114305;28;20127;-74
2021/01/06 00:09:43;;;;;;;1.48;1.10;;;3.90;92.10;;;;;;5113972;28;20093;-74
2021/01/06 00:12:09;;;;;;;1.83;1.10;;;3.90;92.10;;;;;;5113746;28;20038;-74
2021/01/06 00:14:35;;;;;;;1.88;1.02;;;3.90;92.10;;;;;;5113582;28;20043;-75
2021/01/06 00:17:01;;;;;;;2.25;1.30;;;3.90;92.10;;;;;;5113744;28;20035;-75
2021/01/06 00:19:27;;;;;;;1.83;1.00;;;3.90;92.10;;;;;;5113724;28;20032;-75
2021/01/06 00:21:52;;;;;;;2.72;1.55;;;3.90;92.10;;;;;;5113729;28;20564;-75
2021/01/06 00:24:19;;;;;;;2.85;1.23;;;3.80;92.10;;;;;;5113691;28;20186;-75
2021/01/06 00:26:44;;;;;;;1.83;1.02;;;3.80;92.10;;;;;;5113801;28;20096;-74
2021/01/06 00:29:11;;;;;;;2.75;1.30;;;3.80;92.10;;;;;;5114038;28;20122;-74
2021/01/06 00:31:42;;;;;;;2.85;1.30;;;3.80;92.10;;;;;;5113592;28;20048;-74
2021/01/06 00:34:10;;;;;;;2.58;1.25;;;3.80;92.10;;;;;;5113540;28;20088;-74
2021/01/06 00:36:35;;;;;;;2.55;1.23;;;3.80;92.10;;;;;;5113556;28;20086;-75
2021/01/06 00:39:04;;;;;;;2.50;1.23;;;3.80;92.10;;;;;;5095408;28;20131;-74
2021/01/06 00:41:32;;;;;;;3.65;1.48;;;3.80;92.20;;;;;;5095179;28;20086;-75
2021/01/06 00:43:59;;;;;;;2.70;1.10;;;3.80;92.40;;;;;;5113380;28;20052;-74
2021/01/06 00:46:31;;;;;;;2.63;1.15;;;3.80;92.20;;;;;;5113672;28;20040;-76
2021/01/06 00:48:57;;;;;;;;;;;3.80;92.20;;;;;;5113861;28;20140;-75
2021/01/06 00:51:22;;;;;;;1.85;0.95;;;3.90;92.20;;;;;;5112966;28;20344;-75
2021/01/06 00:53:48;;;;;;;1.77;1.02;;;3.80;92.20;;;;;;5095067;28;20126;-75
2021/01/06 00:56:14;;;;;;;2.03;1.20;;;3.80;92.20;;;;;;5113640;28;20088;-75
2021/01/06 00:58:39;;;;;;;2.42;1.20;;;3.80;92.20;;;;;;5113677;28;20466;-75
2021/01/06 01:01:05;;;;;;;2.10;1.27;;;3.80;92.20;;;;;;5113113;28;20030;-74
2021/01/06 01:03:31;;;;;;;2.80;1.30;;;3.80;92.20;;;;;;5112868;28;20088;-75
2021/01/06 01:05:57;;;;;;;2.05;1.20;;;3.80;92.20;;;;;;5112862;28;20043;-74
2021/01/06 01:08:23;;;;;;;2.45;1.10;;;3.80;92.20;;;;;;5112890;28;20528;-75
2021/01/06 01:10:53;;;;;;;2.63;1.30;;;3.80;92.20;;;;;;5094840;28;20035;-75
2021/01/06 01:13:22;;;;;;;1.80;0.95;;;3.80;92.20;;;;;;5094327;28;20051;-75
2021/01/06 01:15:50;;;;;;;2.47;1.25;;;3.80;92.20;;;;;;5112746;28;20036;-75
2021/01/06 01:18:20;;;;;;;3.65;1.67;;;3.80;92.20;;;;;;5112946;28;20118;-75
2021/01/06 01:20:49;;;;;;;2.00;1.30;;;3.80;92.20;;;;;;5111157;28;20036;-75
2021/01/06 01:23:16;;;;;;;2.22;1.10;;;3.80;92.20;;;;;;5113156;28;20489;-74
2021/01/06 01:25:43;;;;;;;1.92;1.17;;;3.80;92.20;;;;;;5112797;28;20397;-75
2021/01/06 01:28:11;;;;;;;3.08;1.70;;;3.80;92.20;;;;;;5112493;28;20054;-75
2021/01/06 01:30:36;;;;;;;3.47;1.60;;;3.80;92.20;;;;;;5112702;28;20036;-75
2021/01/06 01:33:03;;;;;;;2.58;1.40;;;3.80;92.20;;;;;;5094127;28;20043;-75
2021/01/06 01:35:31;;;;;;;3.35;1.50;;;3.80;92.20;;;;;;5112407;28;20031;-75
2021/01/06 01:37:59;;;;;;;2.78;1.35;;;3.80;92.20;;;;;;5112326;28;20500;-75
2021/01/06 01:40:36;;;;;;;2.35;1.35;;;3.80;92.20;;;;;;5112387;28;20135;-75
2021/01/06 01:43:18;;;;;;;3.03;1.50;;;3.80;92.20;;;;;;5094089;28;20114;-75
2021/01/06 01:46:04;;;;;;;;;;;3.70;92.20;;;;;;5112325;28;20085;-75
2021/01/06 01:48:42;;;;;;;2.15;1.38;;;3.80;92.20;;;;;;5079777;28;19915;-75
2021/01/06 01:51:18;;;;;;;2.20;1.17;;;3.70;92.20;;;;;;5112123;28;20135;-75
2021/01/06 01:53:51;;;;;;;2.13;1.30;;;3.70;92.20;;;;;;5112191;28;20046;-75
2021/01/06 01:56:20;;;;;;;2.58;1.20;;;3.70;92.20;;;;;;5112042;28;20138;-75
2021/01/06 01:58:50;;;;;;;2.60;1.10;;;3.80;92.20;;;;;;5112601;28;20038;-75
2021/01/06 02:01:16;;;;;;;1.92;1.10;;;3.80;92.20;;;;;;5112052;28;20044;-75
2021/01/06 02:04:03;;;;;;;2.20;1.10;;;3.70;92.20;;;;;;5112421;28;20065;-75
2021/01/06 02:06:36;;;;;;;2.60;1.17;;;3.80;92.20;;;;;;5111801;28;20056;-75
2021/01/06 02:09:16;;;;;;;2.25;1.20;;;3.70;92.20;;;;;;5112579;28;20093;-75
2021/01/06 02:11:47;;;;;;;2.05;1.20;;;3.70;92.20;;;;;;5111035;28;20046;-75
2021/01/06 02:14:18;;;;;;;1.73;1.10;;;3.70;92.20;;;;;;5112738;28;20055;-75
2021/01/06 02:16:53;;;;;;;2.22;1.13;;;3.70;92.20;;;;;;5097972;28;20040;-75
2021/01/06 02:19:23;;;;;;;1.98;1.27;;;3.70;92.20;;;;;;5116111;28;20467;-75
2021/01/06 02:21:49;;;;;;;2.42;1.25;;;3.70;92.20;;;;;;5116019;28;20047;-75
2021/01/06 02:24:15;;;;;;;2.30;1.17;;;3.60;92.20;;;;;;5115381;28;20050;-74
2021/01/06 02:26:42;;;;;;;2.58;1.17;;;3.60;92.20;;;;;;5115824;28;20485;-75
2021/01/06 02:29:08;;;;;;;2.60;1.50;;;3.70;92.30;;;;;;5115757;28;20044;-75
2021/01/06 02:31:34;;;;;;;2.58;1.35;;;3.70;92.30;;;;;;5115737;28;20044;-74
2021/01/06 02:34:01;;;;;;;1.42;0.90;;;3.60;92.20;;;;;;5115145;28;20108;-75
2021/01/06 02:36:27;;;;;;;1.35;1.00;;;3.60;92.20;;;;;;5115721;28;20044;-75
2021/01/06 02:38:53;;;;;;;3.00;1.73;;;3.60;92.20;;;;;;5115819;28;20423;-75
2021/01/06 02:41:20;;;;;;;2.63;1.38;;;3.60;92.20;;;;;;5115583;28;20105;-75
2021/01/06 02:43:48;;;;;;;2.55;1.27;;;3.70;92.20;;;;;;5115399;28;20039;-75
2021/01/06 02:46:14;;;;;;;2.60;1.27;;;3.60;92.20;;;;;;5115015;28;20056;-74
2021/01/06 02:48:41;;;;;;;2.28;1.30;;;3.60;92.20;;;;;;5115262;28;20123;-75
2021/01/06 02:51:38;;;;;;;2.13;1.27;;;3.60;92.20;;;;;;5096962;28;20046;-75
2021/01/06 02:54:07;;;;;;;2.83;1.40;;;3.60;92.30;;;;;;5114451;28;20135;-75
2021/01/06 02:56:34;;;;;;;3.47;1.50;;;3.50;92.20;;;;;;5097159;28;20919;-75
2021/01/06 02:59:03;;;;;;;3.25;1.60;;;3.50;92.20;;;;;;5114865;28;20039;-74
2021/01/06 03:01:34;;;;;;;2.38;1.40;;;3.60;92.30;;;;;;5115340;28;20439;-75
2021/01/06 03:04:01;;;;;;;4.60;1.85;;;3.50;92.30;;;;;;5115394;28;20097;-75
2021/01/06 03:06:48;;;;;;;2.58;1.55;;;3.50;92.50;;;;;;5097290;28;20355;-75
2021/01/06 03:09:35;;;;;;;2.05;1.10;;;3.50;92.20;;;;;;5113258;28;20378;-75
2021/01/06 03:12:07;;;;;;;2.60;1.30;;;3.50;92.30;;;;;;5096727;28;20069;-74
2021/01/06 03:14:34;;;;;;;1.98;1.15;;;3.50;92.20;;;;;;5114778;28;20043;-74
2021/01/06 03:17:01;;;;;;;2.47;1.10;;;3.50;92.20;;;;;;5114564;28;20378;-75
2021/01/06 03:19:31;;;;;;;2.55;1.25;;;3.40;92.20;;;;;;5112843;28;20040;-74
2021/01/06 03:21:59;;;;;;;2.20;1.05;;;3.50;92.20;;;;;;5114590;28;20457;-75
2021/01/06 03:24:30;;;;;;;2.35;1.27;;;3.60;92.30;;;;;;5114494;28;20386;-75
2021/01/06 03:26:59;;;;;;;3.17;1.65;;;3.50;92.20;;;;;;5114183;28;20088;-75
2021/01/06 03:29:28;;;;;;;4.10;1.48;;;3.50;92.20;;;;;;5114332;28;20048;-75
2021/01/06 03:31:56;;;;;;;2.75;1.77;;;3.50;92.20;;;;;;5114292;28;20047;-75
2021/01/06 03:34:25;;;;;;;2.58;1.40;;;3.40;92.20;;;;;;5095961;28;20047;-75
2021/01/06 03:37:10;;;;;;;2.33;1.45;;;3.40;92.20;;;;;;5114218;28;20062;-75
2021/01/06 03:39:47;;;;;;;2.88;1.60;;;3.40;92.20;;;;;;5114126;28;20043;-74
2021/01/06 03:42:14;;;;;;;2.13;1.17;;;3.50;92.30;;;;;;5114241;28;20035;-75
2021/01/06 03:44:42;;;;;;;2.83;1.50;;;3.40;92.20;;;;;;5114170;28;20040;-75
2021/01/06 03:47:22;;;;;;;3.55;1.52;;;3.50;92.20;;;;;;5114157;28;20559;-75
2021/01/06 03:50:05;;;;;;;2.70;1.55;;;3.40;92.20;;;;;;5113012;28;20043;-74
2021/01/06 03:52:48;;;;;;;1.92;1.20;;;3.40;92.20;;;;;;5112273;28;20055;-75
2021/01/06 03:55:41;;;;;;;2.28;1.30;;;3.40;92.20;;;;;;5114099;28;20047;-74
2021/01/06 03:58:25;;;;;;;1.67;1.00;;;3.40;92.20;;;;;;5114227;28;20031;-75
2021/01/06 04:00:58;;;;;;;2.30;1.40;;;3.40;92.20;;;;;;5114004;28;20027;-75
2021/01/06 04:03:52;;;;;;;2.13;1.13;;;3.40;92.20;;;;;;5113993;28;20039;-74
2021/01/06 04:06:22;;;;;;;1.90;1.05;;;3.40;92.20;;;;;;5112425;28;20044;-75
2021/01/06 04:08:54;;;;;;;3.28;1.60;;;3.40;92.20;;;;;;5112321;28;20044;-75
2021/01/06 04:11:25;;;;;;;1.98;1.13;;;3.40;92.20;;;;;;5113839;28;20098;-75
2021/01/06 04:13:51;;;;;;;1.95;1.13;;;3.40;92.20;;;;;;5113807;28;20440;-75
2021/01/06 04:16:17;;;;;;;2.28;1.33;;;3.40;92.20;;;;;;5114030;28;20040;-75
2021/01/06 04:18:43;;;;;;;2.53;1.40;;;3.30;92.20;;;;;;5113731;28;20123;-75
2021/01/06 04:21:10;;;;;;;2.40;1.40;;;3.40;92.20;;;;;;5113621;28;20424;-75
2021/01/06 04:23:35;;;;;;;1.95;1.02;;;3.40;92.20;;;;;;5095318;28;20524;-75
2021/01/06 04:26:02;;;;;;;2.25;1.30;;;3.30;92.20;;;;;;5113971;28;20078;-75
2021/01/06 04:28:32;;;;;;;2.85;1.40;;;3.30;92.20;;;;;;5095183;28;20123;-75
2021/01/06 04:31:05;;;;;;;2.00;1.10;;;3.30;92.30;;;;;;5113549;28;20062;-75
2021/01/06 04:33:36;;;;;;;2.40;1.30;;;3.40;92.20;;;;;;5113884;28;20058;-75
2021/01/06 04:36:07;;;;;;;2.05;1.20;;;3.30;92.20;;;;;;5078839;28;20123;-75
2021/01/06 04:38:36;;;;;;;2.42;1.30;;;3.30;92.20;;;;;;5094155;28;20044;-75
2021/01/06 04:41:25;;;;;;;1.80;1.10;;;3.30;92.20;;;;;;5113789;28;20028;-74
2021/01/06 04:44:05;;;;;;;1.52;1.05;;;3.40;92.20;;;;;;5095018;28;20481;-75
2021/01/06 04:46:55;;;;;;;1.73;0.88;;;3.30;92.20;;;;;;5113644;28;20043;-75
2021/01/06 04:49:36;;;;;;;2.20;1.10;;;3.30;92.20;;;;;;5113124;28;20040;-75
2021/01/06 04:52:06;;;;;;;;;;;3.30;92.20;;;;;;5095182;28;20113;-75
2021/01/06 04:55:01;;;;;;;1.60;0.90;;;3.30;92.20;;;;;;5094642;28;20054;-75
2021/01/06 04:57:56;;;;;;;1.50;0.90;;;3.30;92.20;;;;;;5111826;28;20035;-75
2021/01/06 05:00:33;;;;;;;1.80;1.17;;;3.30;92.20;;;;;;5111129;28;20065;-74
2021/01/06 05:03:22;;;;;;;1.48;0.95;;;3.30;92.20;;;;;;5113654;28;20046;-75
2021/01/06 05:06:26;;;;;;;1.73;1.10;;;3.30;92.20;;;;;;5094467;28;20569;-75
2021/01/06 05:08:53;;;;;;;2.75;1.40;;;3.20;92.20;;;;;;5110955;28;20043;-75
2021/01/06 05:11:27;;;;;;;3.03;1.30;;;3.20;92.20;;;;;;5112807;28;20069;-75
2021/01/06 05:14:10;;;;;;;2.20;1.15;;;3.20;92.20;;;;;;5113143;28;20048;-75
2021/01/06 05:16:42;;;;;;;2.55;1.35;;;3.20;92.20;;;;;;5113191;28;20035;-75
2021/01/06 05:19:16;;;;;;;1.88;1.10;;;3.20;92.20;;;;;;5112984;28;20093;-75
2021/01/06 05:21:42;;;;;;;2.63;1.27;;;3.20;92.20;;;;;;5111198;28;20036;-75
2021/01/06 05:24:21;;;;;;;2.40;1.23;;;3.20;92.20;;;;;;5110708;28;20040;-75
2021/01/06 05:26:53;;;;;;;1.40;0.98;;;3.20;92.20;;;;;;5094274;28;20092;-75
2021/01/06 05:29:26;;;;;;;2.22;1.10;;;3.20;92.30;;;;;;5077561;28;20529;-75
2021/01/06 05:31:51;;;;;;;2.20;1.25;;;3.20;92.30;;;;;;5078025;28;20039;-75
2021/01/06 05:34:17;;;;;;;2.42;1.10;;;3.20;92.30;;;;;;5112538;28;20039;-75
2021/01/06 05:36:44;;;;;;;3.10;1.30;;;3.10;92.20;;;;;;5112450;28;20463;-75
2021/01/06 05:39:21;;;;;;;2.55;1.30;;;3.10;92.20;;;;;;5112915;28;20035;-75
2021/01/06 05:41:51;;;;;;;3.30;1.45;;;3.10;92.20;;;;;;5093150;28;20028;-75
2021/01/06 05:44:16;;;;;;;1.13;0.77;;;3.10;92.30;;;;;;5112660;28;20093;-75
2021/01/06 05:46:46;;;;;;;2.08;1.00;;;3.10;92.30;;;;;;5112292;28;20494;-75
2021/01/06 05:49:32;;;;;;;2.08;1.27;;;3.00;92.20;;;;;;5094083;28;20096;-75
2021/01/06 05:52:02;;;;;;;2.00;1.20;;;3.00;92.30;;;;;;5111023;28;20046;-75
2021/01/06 05:54:42;;;;;;;2.65;1.33;;;3.10;92.30;;;;;;5110898;28;20044;-75
2021/01/06 05:57:34;;;;;;;2.67;1.25;;;3.00;92.30;;;;;;5112095;28;20043;-74
2021/01/06 06:00:14;;;;;;;1.63;0.90;;;3.10;92.30;;;;;;5093970;28;20032;-75
2021/01/06 06:02:58;;;;;;;1.98;1.10;;;3.00;92.30;;;;;;5112689;28;20044;-75
2021/01/06 06:05:45;;;;;;;2.55;1.27;;;3.00;92.30;;;;;;5111884;28;20087;-75
2021/01/06 06:08:23;;;;;;;1.63;0.95;;;3.00;92.30;;;;;;5112776;28;20114;-75
2021/01/06 06:11:20;;;;;;;2.20;1.23;;;3.10;92.30;;;;;;5111590;28;20039;-75
2021/01/06 06:14:20;;;;;;;1.48;0.93;;;3.00;92.30;;;;;;5110460;28;20038;-75
2021/01/06 06:17:20;;;;;;;1.90;1.20;;;3.00;92.30;;;;;;5099066;28;20066;-75
2021/01/06 06:20:13;;;;;;;1.23;1.00;;;3.00;92.20;;;;;;5095056;28;20067;-75
2021/01/06 06:23:00;;;;;;;1.75;0.85;;;3.00;92.20;;;;;;5111292;28;20103;-75
2021/01/06 06:25:31;;;;;;;1.42;0.80;;;3.00;92.30;;;;;;5093591;28;20038;-75
2021/01/06 06:28:22;;;;;;;1.87;0.93;;;2.90;92.20;;;;;;5112393;28;20036;-75
2021/01/06 06:30:59;;;;;;;1.38;0.77;;;2.90;92.20;;;;;;5111762;28;20347;-75
2021/01/06 06:33:31;;;;;;;1.50;0.85;;;2.90;92.30;;;;;;5111505;28;20143;-75
2021/01/06 06:36:01;;;;;;;1.30;0.88;;;2.80;92.30;;;;;;5094018;28;20055;-75
2021/01/06 06:38:42;;;;;;;0.73;0.47;;;2.80;92.30;;;;;;5111799;28;20059;-75
2021/01/06 06:41:23;;;;;;;1.27;0.90;;;2.80;92.30;;;;;;5111151;28;20066;-74
2021/01/06 06:43:53;;;;;;;1.43;0.70;;;2.80;92.30;;;;;;5093603;28;20036;-75
2021/01/06 06:46:30;;;;;;;1.00;0.60;;;2.80;92.40;;;;;;5110359;28;20043;-74
2021/01/06 06:49:32;;;;;;;1.63;0.80;;;2.70;92.30;;;;;;5111178;28;20522;-75
2021/01/06 06:52:22;;;;;;;1.38;0.65;;;2.70;92.40;;;;;;5093811;28;20051;-74
2021/01/06 06:55:22;;;;;;;1.40;0.85;;;2.70;92.40;;;;;;5093141;28;20051;-75
2021/01/06 06:58:19;;;;;;;1.98;0.90;;;2.70;92.40;;;;;;5077346;28;20507;-75
2021/01/06 07:00:45;;;;;;;1.35;0.68;;;2.60;92.40;;;;;;5112795;28;20071;-75
2021/01/06 07:03:12;;;;;;;1.88;0.95;;;2.60;92.40;;;;;;5114845;28;20451;-75
2021/01/06 07:05:47;;;;;;;1.40;0.80;;;2.50;92.40;;;;;;5096799;28;20066;-72
2021/01/06 07:08:35;;;;;;;0.80;0.70;;;2.50;92.40;;;;;;5114906;28;20470;-72
2021/01/06 07:11:05;;;;;;;1.48;0.68;;;2.50;92.50;;;;;;5095951;28;20039;-72
2021/01/06 07:13:33;;;;;;;0.82;0.70;;;2.40;92.40;;;;;;5115067;28;20031;-72
2021/01/06 07:16:03;;;;;;;1.40;0.70;;;2.40;92.40;;;;;;5115019;28;20097;-72
2021/01/06 07:18:37;;;;;;;1.38;0.85;;;2.40;92.50;;;;;;5114940;28;20100;-72
2021/01/06 07:21:20;;;;;;;2.03;0.77;;;2.40;92.50;;;;;;5114520;28;20116;-72
2021/01/06 07:24:00;;;;;;;1.13;0.70;;;2.40;92.50;;;;;;5114133;28;20031;-72
2021/01/06 07:26:32;;;;;;;0.98;0.52;;;2.40;92.50;;;;;;5114711;28;20093;-72
2021/01/06 07:29:00;;;;;;;1.38;0.80;;;2.40;92.50;;;;;;5114322;28;20047;-73
2021/01/06 07:31:29;;;;;;;1.02;0.60;;;2.40;92.40;;;;;;5096364;28;20047;-72
2021/01/06 07:34:00;;;;;;;1.60;0.80;;;2.60;92.50;;;;;;5115053;28;20039;-72
2021/01/06 07:36:31;;;;;;;1.05;0.77;;;2.50;92.40;;;;;;5115122;28;20040;-72
2021/01/06 07:38:57;;;;;;;1.02;0.63;;;2.50;92.40;;;;;;5114600;28;20028;-72
2021/01/06 07:41:25;;;;;;;0.93;0.70;;;2.60;92.40;;;;;;5114637;28;20039;-72
2021/01/06 07:44:26;;;;;;;0.73;0.50;;;2.60;92.30;;;;;;5096670;28;20432;-72
2021/01/06 07:47:10;;;;;;;1.10;0.60;;;2.70;92.40;;;;;;5112534;28;20069;-72
2021/01/06 07:49:50;;;;;;;1.13;0.70;;;2.60;92.30;;;;;;5114403;28;20043;-72
2021/01/06 07:52:44;;;;;;;1.00;0.82;;;2.60;92.30;;;;;;5114574;28;20047;-72
2021/01/06 07:55:22;;;;;;;1.15;0.60;;;2.60;92.20;;;;;;5100438;28;20452;-72
2021/01/06 07:57:55;;;;;;;2.22;0.95;;;2.60;92.20;;;;;;5096867;28;20109;-75
2021/01/06 08:00:28;;;;;;;0.63;0.50;;;2.60;92.20;;;;;;5114364;28;20105;-75
2021/01/06 08:03:05;;;;;;;0.82;0.68;;;2.60;92.20;;;;;;5095911;28;20043;-75
2021/01/06 08:05:33;;;;;;;0.85;0.63;;;2.70;92.20;;;;;;5114225;28;20039;-76
2021/01/06 08:08:10;;;;;;;1.23;0.65;;;2.80;92.20;;;;;;5113974;28;20442;-75
2021/01/06 08:10:40;;;;;;;1.50;0.85;;;2.70;92.20;;;;;;5114141;28;20043;-75
2021/01/06 08:13:23;;;;;;;1.08;0.52;;;2.60;92.10;;;;;;5096322;28;20050;-75
2021/01/06 08:15:55;;;;;;;1.42;0.80;;;2.70;92.10;;;;;;5113426;28;20478;-75
2021/01/06 08:18:29;;;;;;;2.15;0.85;;;2.70;92.10;;;;;;5095743;28;20044;-75
2021/01/06 08:21:12;;;;;;;0.75;0.50;;;2.70;92.10;;;;;;5096708;28;20122;-74
2021/01/06 08:24:08;;;;;;;0.52;0.47;;;2.80;92.20;;;;;;5113761;28;20036;-75
2021/01/06 08:26:35;;;;;;;1.80;0.80;;;2.80;92.10;;;;;;5113122;28;20036;-75
2021/01/06 08:29:14;;;;;;;1.08;0.80;;;2.80;92.10;;;;;;5096008;28;20046;-75
2021/01/06 08:31:41;;;;;;;0.80;0.63;;;2.80;92.10;;;;;;5096395;28;20097;-75
2021/01/06 08:34:09;;;;;;;1.58;0.77;;;2.80;92.10;;;;;;5114371;28;20045;-76
2021/01/06 08:36:37;;;;;;;0.70;0.65;;;2.80;92.10;;;;;;5079123;28;20043;-76
2021/01/06 08:39:12;;;;;;;1.80;1.00;;;2.90;92.10;;;;;;5095860;28;20085;-75
2021/01/06 08:41:38;;;;;;;1.90;0.90;;;2.90;92.10;;;;;;5095562;28;20070;-76
2021/01/06 08:44:05;;;;;;;1.13;0.70;;;2.90;92.10;;;;;;5114115;28;20072;-76
2021/01/06 08:46:34;;;;;;;1.45;0.85;;;2.90;92.10;;;;;;5114020;28;20122;-74
2021/01/06 08:49:29;;;;;;;2.17;0.85;;;2.90;92.10;;;;;;5114092;28;20039;-75
2021/01/06 08:52:09;;;;;;;1.52;0.88;;;2.90;92.00;;;;;;5097935;28;20039;-75
2021/01/06 08:54:35;;;;;;;2.08;1.00;;;2.90;92.00;;;;;;5097463;28;20040;-74
2021/01/06 08:57:05;;;;;;;2.10;1.00;;;2.90;92.00;;;;;;5113651;28;20097;-74
2021/01/06 08:59:36;;;;;;;2.17;1.20;;;2.90;92.00;;;;;;5113367;28;20036;-74
2021/01/06 09:02:10;;;;;;;1.92;1.13;;;2.80;92.00;;;;;;5111871;28;20508;-74
2021/01/06 09:04:40;;;;;;;1.90;0.90;;;2.90;92.00;;;;;;5113157;28;20554;-75
2021/01/06 09:07:19;;;;;;;1.45;0.80;;;2.90;92.00;;;;;;5113831;28;20046;-75
2021/01/06 09:10:09;;;;;;;1.65;1.00;;;3.00;92.00;;;;;;5113658;28;20067;-75
2021/01/06 09:13:00;;;;;;;1.42;0.90;;;3.00;92.00;;;;;;5094979;28;20115;-73
2021/01/06 09:15:51;;;;;;;1.85;0.95;;;2.90;92.00;;;;;;5113189;28;20125;-75
2021/01/06 09:18:35;;;;;;;1.35;0.82;;;2.90;92.00;;;;;;5111250;28;20063;-74
2021/01/06 09:21:23;;;;;;;1.92;0.75;;;3.00;92.00;;;;;;5113214;28;20040;-73
2021/01/06 09:23:53;;;;;;;1.75;0.93;;;3.00;91.90;;;;;;5064517;28;20081;-75
2021/01/06 09:26:25;;;;;;;0.98;0.70;;;3.00;91.90;;;;;;5113447;28;20113;-75
2021/01/06 09:28:56;;;;;;;;;;;3.00;91.90;;;;;;5112111;28;20036;-77
2021/01/06 09:31:22;;;;;;;1.80;1.00;;;3.00;91.90;;;;;;5093521;28;19911;-74
2021/01/06 09:33:48;;;;;;;2.00;0.90;;;3.00;91.80;;;;;;5113045;28;20067;-73
2021/01/06 09:36:15;;;;;;;1.80;1.05;;;3.00;91.80;;;;;;5094767;28;20036;-73
2021/01/06 09:38:46;;;;;;;1.27;0.63;;;3.00;91.80;;;;;;5113000;28;20122;-75
2021/01/06 09:41:16;;;;;;;1.13;0.85;;;3.10;91.80;;;;;;5113271;28;20039;-75
2021/01/06 09:43:49;;;;;;;1.33;0.85;;;3.10;91.80;;;;;;5094670;28;20044;-72
2021/01/06 09:46:33;;;;;;;1.73;0.90;;;3.10;91.80;;;;;;5112651;28;20044;-72
2021/01/06 09:49:06;;;;;;;1.90;0.90;;;3.20;91.80;;;;;;5112785;28;20047;-72
2021/01/06 09:51:34;;;;;;;1.92;1.00;;;3.30;91.80;;;;;;5095724;28;20127;-72
2021/01/06 09:54:04;;;;;;;2.08;1.02;;;3.30;91.80;;;;;;5094695;28;20054;-72
2021/01/06 09:56:33;;;;;;;1.88;0.98;;;3.30;92.00;;;;;;5112546;28;20489;-73
2021/01/06 09:59:01;;;;;;;1.58;0.80;;;3.30;91.70;;;;;;5112828;28;20070;-73
2021/01/06 10:01:38;;;;;;;1.35;0.80;;;3.40;91.70;;;;;;5112574;28;20489;-73
2021/01/06 10:04:15;;;;;;;1.25;0.75;;;3.40;91.60;;;;;;5112504;28;20043;-73
2021/01/06 10:07:04;;;;;;;1.45;0.90;;;3.40;91.60;;;;;;5111489;28;20066;-72
2021/01/06 10:09:37;;;;;;;1.50;0.90;;;3.40;91.60;;;;;;5097285;28;20044;-72
2021/01/06 10:12:28;;;;;;;2.50;1.00;;;3.50;91.60;;;;;;5112397;28;20050;-72
2021/01/06 10:15:24;;;;;;;1.70;1.00;;;3.50;91.60;;;;;;5111031;28;20039;-72
2021/01/06 10:18:17;;;;;;;2.38;1.00;;;3.50;91.60;;;;;;5098846;28;20040;-72
2021/01/06 10:21:08;;;;;;;1.20;0.80;;;3.50;91.50;;;;;;5093659;28;20035;-78
2021/01/06 10:24:08;;;;;;;2.00;0.93;;;3.50;91.50;;;;;;5083134;28;20105;-78
2021/01/06 10:26:52;;;;;;;1.60;0.93;;;3.70;91.60;;;;;;5093749;28;20405;-74
2021/01/06 10:29:33;;;;;;;2.58;1.17;;;3.50;91.50;;;;;;5112874;28;20052;-75
2021/01/06 10:32:26;;;;;;;1.42;0.75;;;3.60;91.50;;;;;;5110974;28;20035;-75
2021/01/06 10:35:26;;;;;;;1.38;0.70;;;3.50;91.50;;;;;;5097401;28;20139;-75
2021/01/06 10:37:55;;;;;;;0.95;0.80;;;3.50;91.50;;;;;;5116156;28;20039;-74
2021/01/06 10:40:37;;;;;;;0.98;0.80;;;3.50;91.50;;;;;;5115707;28;20035;-73
2021/01/06 10:43:35;;;;;;;0.95;0.60;;;3.50;91.50;;;;;;5114763;28;20043;-72
2021/01/06 10:46:36;;;;;;;1.20;0.65;;;3.60;91.50;;;;;;5114033;28;20093;-72
2021/01/06 10:49:10;;;;;;;1.23;0.82;;;3.60;91.50;;;;;;5114541;28;20044;-72
2021/01/06 10:52:07;;;;;;;1.40;0.90;;;3.70;91.40;;;;;;5116110;28;20040;-73
2021/01/06 10:54:39;;;;;;;1.50;0.90;;;3.70;91.40;;;;;;5099249;28;20047;-73
2021/01/06 10:57:27;;;;;;;1.45;0.82;;;3.70;91.40;;;;;;5115958;28;20035;-73
2021/01/06 11:00:11;;;;;;;1.23;0.90;;;3.70;91.40;;;;;;5114796;28;20039;-73
2021/01/06 11:03:07;;;;;;;1.08;0.70;;;3.70;91.40;;;;;;5114948;28;20442;-73
2021/01/06 11:05:59;;;;;;;1.25;0.90;;;3.80;91.40;;;;;;5114115;28;20040;-74
2021/01/06 11:08:50;;;;;;;0.70;0.55;;;3.80;91.40;;;;;;5115787;28;20043;-74
2021/01/06 11:11:38;;;;;;;0.73;0.47;;;3.70;91.40;;;;;;5115804;28;20055;-74
2021/01/06 11:14:25;;;;;;;1.23;0.85;;;3.70;91.40;;;;;;5115092;28;20599;-74
2021/01/06 11:16:56;;;;;;;0.98;0.73;;;3.80;91.40;;;;;;5096911;28;20036;-73
2021/01/06 11:19:49;;;;;;;2.03;0.80;;;3.70;91.40;;;;;;5115617;28;20044;-73
2021/01/06 11:22:33;;;;;;;1.48;0.98;;;3.90;91.40;;;;;;5113404;28;20035;-74
2021/01/06 11:25:25;;;;;;;0.85;0.60;;;3.80;91.30;;;;;;5096603;28;20400;-72
2021/01/06 11:28:29;;;;;;;1.45;0.75;;;3.70;91.30;;;;;;5114701;28;20044;-72
2021/01/06 11:31:21;;;;;;;1.05;0.70;;;3.70;91.40;;;;;;5102678;28;20381;-72
2021/01/06 11:33:53;;;;;;;0.82;0.68;;;3.80;91.40;;;;;;5113657;28;20122;-72
2021/01/06 11:36:40;;;;;;;1.23;0.70;;;3.80;91.40;;;;;;5113595;28;20048;-72
2021/01/06 11:39:09;;;;;;;1.15;0.57;;;3.80;91.40;;;;;;5114853;28;20373;-72
2021/01/06 11:41:58;;;;;;;0.82;0.52;;;3.90;91.40;;;;;;5097162;28;20039;-72
2021/01/06 11:44:37;;;;;;;0.52;0.52;;;3.80;91.30;;;;;;5099353;28;20039;-72
2021/01/06 11:47:21;;;;;;;1.10;0.50;;;3.90;91.30;;;;;;5097173;28;20481;-73
2021/01/06 11:49:52;;;;;;;0.40;0.40;;;3.90;91.30;;;;;;5112889;28;20089;-73
2021/01/06 11:52:37;;;;;;;0.47;0.47;;;4.00;91.30;;;;;;5114709;28;20090;-72
2021/01/06 11:55:27;;;;;;;0.90;0.50;;;3.90;91.30;;;;;;5112748;28;20039;-72
2021/01/06 11:58:14;;;;;;;1.17;0.50;;;4.00;91.30;;;;;;5114489;28;20485;-74
2021/01/06 12:00:59;;;;;;;1.00;0.60;;;4.00;91.30;;;;;;5100327;28;20047;-74
2021/01/06 12:03:40;;;;;;;0.90;0.60;;;4.00;91.30;;;;;;5114792;28;20048;-75
2021/01/06 12:06:46;;;;;;;0.47;0.30;;;4.10;91.20;;;;;;5098572;28;20120;-74
2021/01/06 12:09:28;;;;;;;1.27;0.50;;;4.10;91.20;;;;;;5084174;28;20163;-73
2021/01/06 12:11:58;;;;;;;;;;;4.10;91.20;;;;;;5114794;28;20469;-75
2021/01/06 12:14:41;;;;;;;0.50;0.30;;;4.20;91.20;;;;;;5079620;28;20277;-73
2021/01/06 12:17:29;;;;;;;0.70;0.50;;;4.20;91.10;;;;;;5113751;28;20073;-74
2021/01/06 12:20:31;;;;;;;0.77;0.30;;;4.20;91.10;;;;;;5096207;28;20048;-74
2021/01/06 12:23:19;;;;;;;0.32;0.32;;;4.10;91.10;;;;;;5113316;28;20067;-74
2021/01/06 12:25:57;;;;;;;0.95;0.50;;;4.20;91.10;;;;;;5114172;28;20050;-75
2021/01/06 12:28:44;;;;;;;0.47;0.40;;;4.30;91.10;;;;;;5113939;28;20036;-74
2021/01/06 12:31:26;;;;;;;0.95;0.45;;;4.30;91.10;;;;;;5116134;28;20122;-73
2021/01/06 12:34:04;;;;;;;;;;;4.20;91.00;;;;;;5114702;28;20055;-74
2021/01/06 12:36:33;;;;;;;0.30;0.30;;;4.30;91.00;;;;;;5113367;28;19958;-73
2021/01/06 12:39:25;;;;;;;0.52;0.50;;;4.30;91.00;;;;;;5114335;28;20036;-72
2021/01/06 12:41:59;;;;;;;0.52;0.50;;;4.30;91.00;;;;;;5114156;28;20040;-72
2021/01/06 12:44:29;;;;;;;0.50;0.40;;;4.20;90.90;;;;;;5114916;28;20067;-75
2021/01/06 12:47:03;;;;;;;1.00;0.45;;;4.20;90.90;;;;;;5094608;28;20050;-74
2021/01/06 12:49:49;;;;;;;0.47;0.40;;;4.30;90.90;;;;;;5112663;28;20479;-73
2021/01/06 12:52:25;;;;;;;0.47;0.30;;;4.20;90.90;;;;;;5080693;28;20031;-74
2021/01/06 12:55:03;;;;;;;0.30;0.30;;;4.30;90.90;;;;;;5114133;28;20036;-75
2021/01/06 12:57:33;;;;;;;0.55;0.50;;;4.30;90.90;;;;;;5095093;28;20468;-73
2021/01/06 13:00:06;;;;;;;0.57;0.30;;;4.40;90.90;;;;;;5094443;28;20464;-72
2021/01/06 13:02:39;;;;;;;0.45;0.45;;;4.30;90.80;;;;;;5113841;28;20039;-72
2021/01/06 13:05:20;;;;;;;0.32;0.32;;;4.40;90.80;;;;;;5113726;28;20043;-73
2021/01/06 13:07:51;;;;;;;0.82;0.50;;;4.30;90.80;;;;;;5094541;28;20043;-73
2021/01/06 13:10:38;;;;;;;2.03;0.57;;;4.30;90.80;;;;;;5113165;28;20053;-74
2021/01/06 13:13:26;;;;;;;0.77;0.57;;;4.30;90.80;;;;;;5113781;28;20051;-74
2021/01/06 13:16:00;;;;;;;1.10;0.70;;;4.30;90.80;;;;;;5113795;28;20036;-74
2021/01/06 13:18:47;;;;;;;0.60;0.50;;;4.20;90.80;;;;;;5094898;28;20434;-74
2021/01/06 13:21:22;;;;;;;0.63;0.43;;;4.20;90.80;;;;;;5118240;28;20071;-75
2021/01/06 13:24:10;;;;;;;0.50;0.50;;;4.10;90.80;;;;;;5095038;28;20039;-74
2021/01/06 13:26:43;;;;;;;0.63;0.40;;;4.20;90.80;;;;;;5098282;28;20043;-75
2021/01/06 13:29:25;;;;;;;0.47;0.45;;;4.10;90.80;;;;;;5095861;28;20044;-73
2021/01/06 13:32:10;;;;;;;;;;;4.10;90.80;;;;;;5113489;28;20047;-73
2021/01/06 13:34:45;;;;;;;0.40;0.30;;;4.10;90.80;;;;;;5097156;28;19923;-74
2021/01/06 13:37:33;;;;;;;0.35;0.35;;;4.10;90.80;;;;;;5095854;28;20043;-74
2021/01/06 13:40:14;;;;;;;0.40;0.32;;;4.10;90.80;;;;;;5112946;28;20040;-74
2021/01/06 13:43:02;;;;;;;0.55;0.40;;;4.10;90.70;;;;;;5113321;28;20118;-72
2021/01/06 13:45:43;;;;;;;0.22;0.20;;;4.20;90.80;;;;;;5110986;28;20181;-72